sensor_id;sensor_type;location;lat;lon;timestamp;pressure;altitude;pressure_sealevel;temperature
5571;BMP180;2808;51.240;6.794;2023-04-24T00:01:54;99668.00;;;11.50
5571;BMP180;2808;51.240;6.794;2023-04-24T00:04:22;99669.00;;;11.40
5571;BMP180;2808;51.240;6.794;2023-04-24T00:06:52;99677.00;;;11.40
5571;BMP180;2808;51.240;6.794;2023-04-24T00:09:23;99669.00;;;11.40
5571;BMP180;2808;51.240;6.794;2023-04-24T00:11:54;99669.00;;;11.40
5571;BMP180;2808;51.240;6.794;2023-04-24T00:14:25;99664.00;;;11.30
5571;BMP180;2808;51.240;6.794;2023-04-24T00:16:56;99649.00;;;11.10
5571;BMP180;2808;51.240;6.794;2023-04-24T00:19:26;99664.00;;;11.10
5571;BMP180;2808;51.240;6.794;2023-04-24T00:22:02;99665.00;;;11.10
5571;BMP180;2808;51.240;6.794;2023-04-24T00:24:30;99670.00;;;11.00
5571;BMP180;2808;51.240;6.794;2023-04-24T00:26:59;99666.00;;;11.00
5571;BMP180;2808;51.240;6.794;2023-04-24T00:29:27;99685.00;;;10.90
5571;BMP180;2808;51.240;6.794;2023-04-24T00:31:55;99680.00;;;10.90
5571;BMP180;2808;51.240;6.794;2023-04-24T00:34:22;99683.00;;;10.90
5571;BMP180;2808;51.240;6.794;2023-04-24T00:36:50;99688.00;;;10.90
5571;BMP180;2808;51.240;6.794;2023-04-24T00:39:18;99682.00;;;11.00
5571;BMP180;2808;51.240;6.794;2023-04-24T00:41:47;99680.00;;;11.00
5571;BMP180;2808;51.240;6.794;2023-04-24T00:44:18;99679.00;;;11.10
5571;BMP180;2808;51.240;6.794;2023-04-24T00:46:46;99681.00;;;11.10
5571;BMP180;2808;51.240;6.794;2023-04-24T00:49:18;99678.00;;;11.10
5571;BMP180;2808;51.240;6.794;2023-04-24T00:51:46;99673.00;;;11.10
5571;BMP180;2808;51.240;6.794;2023-04-24T00:54:15;99686.00;;;11.20
5571;BMP180;2808;51.240;6.794;2023-04-24T00:56:46;99683.00;;;11.20
5571;BMP180;2808;51.240;6.794;2023-04-24T00:59:15;99669.00;;;11.10
5571;BMP180;2808;51.240;6.794;2023-04-24T01:01:45;99669.00;;;11.10
5571;BMP180;2808;51.240;6.794;2023-04-24T01:04:13;99671.00;;;11.20
5571;BMP180;2808;51.240;6.794;2023-04-24T01:06:43;99670.00;;;11.20
5571;BMP180;2808;51.240;6.794;2023-04-24T01:09:18;99673.00;;;11.10
5571;BMP180;2808;51.240;6.794;2023-04-24T01:11:46;99681.00;;;11.10
5571;BMP180;2808;51.240;6.794;2023-04-24T01:14:16;99674.00;;;11.20
5571;BMP180;2808;51.240;6.794;2023-04-24T01:16:45;99669.00;;;11.10
5571;BMP180;2808;51.240;6.794;2023-04-24T01:19:14;99678.00;;;11.10
5571;BMP180;2808;51.240;6.794;2023-04-24T01:21:45;99663.00;;;11.00
5571;BMP180;2808;51.240;6.794;2023-04-24T01:24:16;99675.00;;;10.80
5571;BMP180;2808;51.240;6.794;2023-04-24T01:27:02;99678.00;;;10.60
5571;BMP180;2808;51.240;6.794;2023-04-24T01:29:33;99679.00;;;10.40
5571;BMP180;2808;51.240;6.794;2023-04-24T01:32:04;99672.00;;;10.30
5571;BMP180;2808;51.240;6.794;2023-04-24T01:34:32;99683.00;;;10.30
5571;BMP180;2808;51.240;6.794;2023-04-24T01:37:00;99672.00;;;10.30
5571;BMP180;2808;51.240;6.794;2023-04-24T01:39:32;99670.00;;;10.20
5571;BMP180;2808;51.240;6.794;2023-04-24T01:42:01;99672.00;;;10.10
5571;BMP180;2808;51.240;6.794;2023-04-24T01:44:28;99666.00;;;10.00
5571;BMP180;2808;51.240;6.794;2023-04-24T01:46:56;99664.00;;;9.90
5571;BMP180;2808;51.240;6.794;2023-04-24T01:49:23;99676.00;;;9.90
5571;BMP180;2808;51.240;6.794;2023-04-24T01:51:51;99682.00;;;9.90
5571;BMP180;2808;51.240;6.794;2023-04-24T01:54:19;99683.00;;;9.90
5571;BMP180;2808;51.240;6.794;2023-04-24T01:56:48;99679.00;;;9.80
5571;BMP180;2808;51.240;6.794;2023-04-24T01:59:17;99682.00;;;9.90
5571;BMP180;2808;51.240;6.794;2023-04-24T02:01:45;99676.00;;;9.90
5571;BMP180;2808;51.240;6.794;2023-04-24T02:04:13;99671.00;;;9.90
5571;BMP180;2808;51.240;6.794;2023-04-24T02:06:44;99683.00;;;9.90
5571;BMP180;2808;51.240;6.794;2023-04-24T02:09:11;99674.00;;;10.00
5571;BMP180;2808;51.240;6.794;2023-04-24T02:11:39;99668.00;;;10.00
5571;BMP180;2808;51.240;6.794;2023-04-24T02:14:08;99664.00;;;10.10
5571;BMP180;2808;51.240;6.794;2023-04-24T02:16:35;99666.00;;;10.10
5571;BMP180;2808;51.240;6.794;2023-04-24T02:19:03;99669.00;;;10.10
5571;BMP180;2808;51.240;6.794;2023-04-24T02:21:35;99664.00;;;10.20
5571;BMP180;2808;51.240;6.794;2023-04-24T02:24:10;99663.00;;;10.10
5571;BMP180;2808;51.240;6.794;2023-04-24T02:26:39;99671.00;;;10.10
5571;BMP180;2808;51.240;6.794;2023-04-24T02:29:12;99659.00;;;10.10
5571;BMP180;2808;51.240;6.794;2023-04-24T02:31:44;99670.00;;;10.10
5571;BMP180;2808;51.240;6.794;2023-04-24T02:34:13;99671.00;;;10.20
5571;BMP180;2808;51.240;6.794;2023-04-24T02:36:44;99674.00;;;10.20
5571;BMP180;2808;51.240;6.794;2023-04-24T02:39:15;99678.00;;;10.20
5571;BMP180;2808;51.240;6.794;2023-04-24T02:41:43;99676.00;;;10.20
5571;BMP180;2808;51.240;6.794;2023-04-24T02:44:15;99670.00;;;10.20
5571;BMP180;2808;51.240;6.794;2023-04-24T02:46:43;99675.00;;;10.20
5571;BMP180;2808;51.240;6.794;2023-04-24T02:49:11;99675.00;;;10.30
5571;BMP180;2808;51.240;6.794;2023-04-24T02:51:38;99680.00;;;10.30
5571;BMP180;2808;51.240;6.794;2023-04-24T02:54:10;99686.00;;;10.30
5571;BMP180;2808;51.240;6.794;2023-04-24T02:56:41;99675.00;;;10.20
5571;BMP180;2808;51.240;6.794;2023-04-24T02:59:10;99679.00;;;10.20
5571;BMP180;2808;51.240;6.794;2023-04-24T03:01:38;99687.00;;;10.20
5571;BMP180;2808;51.240;6.794;2023-04-24T03:04:05;99686.00;;;10.30
5571;BMP180;2808;51.240;6.794;2023-04-24T03:06:33;99687.00;;;10.30
5571;BMP180;2808;51.240;6.794;2023-04-24T03:09:01;99694.00;;;10.30
5571;BMP180;2808;51.240;6.794;2023-04-24T03:11:29;99685.00;;;10.30
5571;BMP180;2808;51.240;6.794;2023-04-24T03:13:57;99692.00;;;10.30
5571;BMP180;2808;51.240;6.794;2023-04-24T03:16:27;99681.00;;;10.30
5571;BMP180;2808;51.240;6.794;2023-04-24T03:18:55;99701.00;;;10.30
5571;BMP180;2808;51.240;6.794;2023-04-24T03:21:23;99683.00;;;10.30
5571;BMP180;2808;51.240;6.794;2023-04-24T03:23:53;99694.00;;;10.30
5571;BMP180;2808;51.240;6.794;2023-04-24T03:26:21;99698.00;;;10.30
5571;BMP180;2808;51.240;6.794;2023-04-24T03:28:57;99690.00;;;10.30
5571;BMP180;2808;51.240;6.794;2023-04-24T03:31:32;99696.00;;;10.30
5571;BMP180;2808;51.240;6.794;2023-04-24T03:34:00;99692.00;;;10.30
5571;BMP180;2808;51.240;6.794;2023-04-24T03:36:30;99691.00;;;10.30
5571;BMP180;2808;51.240;6.794;2023-04-24T03:38:58;99701.00;;;10.30
5571;BMP180;2808;51.240;6.794;2023-04-24T03:41:26;99702.00;;;10.30
5571;BMP180;2808;51.240;6.794;2023-04-24T03:43:53;99697.00;;;10.30
5571;BMP180;2808;51.240;6.794;2023-04-24T03:46:23;99700.00;;;10.40
5571;BMP180;2808;51.240;6.794;2023-04-24T03:48:52;99697.00;;;10.40
5571;BMP180;2808;51.240;6.794;2023-04-24T03:51:19;99701.00;;;10.30
5571;BMP180;2808;51.240;6.794;2023-04-24T03:53:50;99696.00;;;10.30
5571;BMP180;2808;51.240;6.794;2023-04-24T03:56:17;99689.00;;;10.30
5571;BMP180;2808;51.240;6.794;2023-04-24T03:58:45;99714.00;;;10.20
5571;BMP180;2808;51.240;6.794;2023-04-24T04:01:19;99700.00;;;10.20
5571;BMP180;2808;51.240;6.794;2023-04-24T04:03:59;99700.00;;;10.20
5571;BMP180;2808;51.240;6.794;2023-04-24T04:06:38;99707.00;;;10.20
5571;BMP180;2808;51.240;6.794;2023-04-24T04:09:06;99704.00;;;10.10
5571;BMP180;2808;51.240;6.794;2023-04-24T04:11:37;99712.00;;;10.10
5571;BMP180;2808;51.240;6.794;2023-04-24T04:14:04;99712.00;;;10.10
5571;BMP180;2808;51.240;6.794;2023-04-24T04:16:33;99714.00;;;10.10
5571;BMP180;2808;51.240;6.794;2023-04-24T04:19:03;99713.00;;;10.20
5571;BMP180;2808;51.240;6.794;2023-04-24T04:21:39;99720.00;;;10.20
5571;BMP180;2808;51.240;6.794;2023-04-24T04:24:26;99714.00;;;10.10
5571;BMP180;2808;51.240;6.794;2023-04-24T04:27:06;99713.00;;;10.20
5571;BMP180;2808;51.240;6.794;2023-04-24T04:29:37;99717.00;;;10.20
5571;BMP180;2808;51.240;6.794;2023-04-24T04:32:06;99726.00;;;10.20
5571;BMP180;2808;51.240;6.794;2023-04-24T04:34:35;99718.00;;;10.20
5571;BMP180;2808;51.240;6.794;2023-04-24T04:37:03;99718.00;;;10.10
5571;BMP180;2808;51.240;6.794;2023-04-24T04:39:32;99716.00;;;10.10
5571;BMP180;2808;51.240;6.794;2023-04-24T04:42:00;99728.00;;;10.10
5571;BMP180;2808;51.240;6.794;2023-04-24T04:44:30;99736.00;;;10.00
5571;BMP180;2808;51.240;6.794;2023-04-24T04:47:01;99738.00;;;10.10
5571;BMP180;2808;51.240;6.794;2023-04-24T04:49:31;99725.00;;;10.10
5571;BMP180;2808;51.240;6.794;2023-04-24T04:52:01;99738.00;;;10.00
5571;BMP180;2808;51.240;6.794;2023-04-24T04:54:29;99742.00;;;9.90
5571;BMP180;2808;51.240;6.794;2023-04-24T04:56:57;99736.00;;;9.90
5571;BMP180;2808;51.240;6.794;2023-04-24T04:59:30;99738.00;;;9.90
5571;BMP180;2808;51.240;6.794;2023-04-24T05:01:57;99746.00;;;9.90
5571;BMP180;2808;51.240;6.794;2023-04-24T05:04:30;99734.00;;;9.80
5571;BMP180;2808;51.240;6.794;2023-04-24T05:07:01;99753.00;;;9.60
5571;BMP180;2808;51.240;6.794;2023-04-24T05:09:29;99752.00;;;9.60
5571;BMP180;2808;51.240;6.794;2023-04-24T05:11:56;99742.00;;;9.60
5571;BMP180;2808;51.240;6.794;2023-04-24T05:14:24;99745.00;;;9.60
5571;BMP180;2808;51.240;6.794;2023-04-24T05:16:51;99733.00;;;9.60
5571;BMP180;2808;51.240;6.794;2023-04-24T05:19:19;99753.00;;;9.70
5571;BMP180;2808;51.240;6.794;2023-04-24T05:21:47;99751.00;;;9.70
5571;BMP180;2808;51.240;6.794;2023-04-24T05:24:15;99750.00;;;9.70
5571;BMP180;2808;51.240;6.794;2023-04-24T05:26:48;99749.00;;;9.70
5571;BMP180;2808;51.240;6.794;2023-04-24T05:29:15;99748.00;;;9.80
5571;BMP180;2808;51.240;6.794;2023-04-24T05:31:45;99757.00;;;9.80
5571;BMP180;2808;51.240;6.794;2023-04-24T05:34:15;99760.00;;;9.70
5571;BMP180;2808;51.240;6.794;2023-04-24T05:36:43;99758.00;;;9.80
5571;BMP180;2808;51.240;6.794;2023-04-24T05:39:15;99755.00;;;9.80
5571;BMP180;2808;51.240;6.794;2023-04-24T05:41:44;99758.00;;;9.80
5571;BMP180;2808;51.240;6.794;2023-04-24T05:44:12;99760.00;;;9.90
5571;BMP180;2808;51.240;6.794;2023-04-24T05:46:40;99759.00;;;9.90
5571;BMP180;2808;51.240;6.794;2023-04-24T05:49:07;99763.00;;;9.90
5571;BMP180;2808;51.240;6.794;2023-04-24T05:51:35;99756.00;;;10.00
5571;BMP180;2808;51.240;6.794;2023-04-24T05:54:02;99763.00;;;10.10
5571;BMP180;2808;51.240;6.794;2023-04-24T05:56:31;99765.00;;;9.90
5571;BMP180;2808;51.240;6.794;2023-04-24T05:59:01;99761.00;;;9.90
5571;BMP180;2808;51.240;6.794;2023-04-24T06:01:29;99757.00;;;9.70
5571;BMP180;2808;51.240;6.794;2023-04-24T06:03:57;99766.00;;;9.80
5571;BMP180;2808;51.240;6.794;2023-04-24T06:06:25;99756.00;;;9.80
5571;BMP180;2808;51.240;6.794;2023-04-24T06:08:53;99760.00;;;9.80
5571;BMP180;2808;51.240;6.794;2023-04-24T06:11:20;99758.00;;;9.80
5571;BMP180;2808;51.240;6.794;2023-04-24T06:13:50;99759.00;;;9.70
5571;BMP180;2808;51.240;6.794;2023-04-24T06:16:18;99759.00;;;9.70
5571;BMP180;2808;51.240;6.794;2023-04-24T06:18:45;99752.00;;;9.70
5571;BMP180;2808;51.240;6.794;2023-04-24T06:21:13;99760.00;;;9.80
5571;BMP180;2808;51.240;6.794;2023-04-24T06:23:41;99758.00;;;9.70
5571;BMP180;2808;51.240;6.794;2023-04-24T06:26:09;99756.00;;;9.70
5571;BMP180;2808;51.240;6.794;2023-04-24T06:28:36;99763.00;;;9.70
5571;BMP180;2808;51.240;6.794;2023-04-24T06:31:05;99765.00;;;9.60
5571;BMP180;2808;51.240;6.794;2023-04-24T06:33:33;99769.00;;;9.60
5571;BMP180;2808;51.240;6.794;2023-04-24T06:36:01;99766.00;;;9.60
5571;BMP180;2808;51.240;6.794;2023-04-24T06:38:31;99769.00;;;9.60
5571;BMP180;2808;51.240;6.794;2023-04-24T06:41:00;99774.00;;;9.60
5571;BMP180;2808;51.240;6.794;2023-04-24T06:43:27;99773.00;;;9.60
5571;BMP180;2808;51.240;6.794;2023-04-24T06:45:56;99758.00;;;9.50
5571;BMP180;2808;51.240;6.794;2023-04-24T06:48:28;99776.00;;;9.60
5571;BMP180;2808;51.240;6.794;2023-04-24T06:50:55;99775.00;;;9.60
5571;BMP180;2808;51.240;6.794;2023-04-24T06:53:25;99770.00;;;9.60
5571;BMP180;2808;51.240;6.794;2023-04-24T06:55:56;99776.00;;;9.50
5571;BMP180;2808;51.240;6.794;2023-04-24T06:58:25;99773.00;;;9.50
5571;BMP180;2808;51.240;6.794;2023-04-24T07:00:53;99781.00;;;9.50
5571;BMP180;2808;51.240;6.794;2023-04-24T07:03:20;99773.00;;;9.50
5571;BMP180;2808;51.240;6.794;2023-04-24T07:05:54;99775.00;;;9.60
5571;BMP180;2808;51.240;6.794;2023-04-24T07:08:21;99777.00;;;9.70
5571;BMP180;2808;51.240;6.794;2023-04-24T07:10:50;99773.00;;;9.80
5571;BMP180;2808;51.240;6.794;2023-04-24T07:13:19;99776.00;;;9.80
5571;BMP180;2808;51.240;6.794;2023-04-24T07:15:47;99778.00;;;9.80
5571;BMP180;2808;51.240;6.794;2023-04-24T07:18:16;99780.00;;;9.80
5571;BMP180;2808;51.240;6.794;2023-04-24T07:20:50;99777.00;;;9.70
5571;BMP180;2808;51.240;6.794;2023-04-24T07:23:20;99778.00;;;9.60
5571;BMP180;2808;51.240;6.794;2023-04-24T07:25:48;99788.00;;;9.70
5571;BMP180;2808;51.240;6.794;2023-04-24T07:28:17;99786.00;;;9.60
5571;BMP180;2808;51.240;6.794;2023-04-24T07:30:46;99787.00;;;9.50
5571;BMP180;2808;51.240;6.794;2023-04-24T07:33:18;99797.00;;;9.50
5571;BMP180;2808;51.240;6.794;2023-04-24T07:35:55;99796.00;;;9.30
5571;BMP180;2808;51.240;6.794;2023-04-24T07:38:25;99817.00;;;9.30
5571;BMP180;2808;51.240;6.794;2023-04-24T07:40:53;99807.00;;;9.20
5571;BMP180;2808;51.240;6.794;2023-04-24T07:43:26;99806.00;;;9.10
5571;BMP180;2808;51.240;6.794;2023-04-24T07:45:58;99810.00;;;9.10
5571;BMP180;2808;51.240;6.794;2023-04-24T07:48:32;99825.00;;;9.10
5571;BMP180;2808;51.240;6.794;2023-04-24T07:51:42;99817.00;;;9.00
5571;BMP180;2808;51.240;6.794;2023-04-24T07:54:13;99813.00;;;9.00
5571;BMP180;2808;51.240;6.794;2023-04-24T07:56:41;99813.00;;;8.90
5571;BMP180;2808;51.240;6.794;2023-04-24T07:59:15;99817.00;;;8.80
5571;BMP180;2808;51.240;6.794;2023-04-24T08:01:42;99813.00;;;8.80
5571;BMP180;2808;51.240;6.794;2023-04-24T08:04:10;99810.00;;;8.80
5571;BMP180;2808;51.240;6.794;2023-04-24T08:06:44;99824.00;;;8.80
5571;BMP180;2808;51.240;6.794;2023-04-24T08:09:14;99823.00;;;8.80
5571;BMP180;2808;51.240;6.794;2023-04-24T08:11:42;99826.00;;;8.80
5571;BMP180;2808;51.240;6.794;2023-04-24T08:14:09;99831.00;;;8.70
5571;BMP180;2808;51.240;6.794;2023-04-24T08:16:38;99845.00;;;8.80
5571;BMP180;2808;51.240;6.794;2023-04-24T08:19:06;99856.00;;;8.70
5571;BMP180;2808;51.240;6.794;2023-04-24T08:21:33;99874.00;;;8.70
5571;BMP180;2808;51.240;6.794;2023-04-24T08:24:02;99882.00;;;8.80
5571;BMP180;2808;51.240;6.794;2023-04-24T08:26:33;99869.00;;;8.90
5571;BMP180;2808;51.240;6.794;2023-04-24T08:29:00;99876.00;;;9.00
5571;BMP180;2808;51.240;6.794;2023-04-24T08:31:30;99878.00;;;9.00
5571;BMP180;2808;51.240;6.794;2023-04-24T08:33:57;99887.00;;;9.10
5571;BMP180;2808;51.240;6.794;2023-04-24T08:36:27;99879.00;;;9.20
5571;BMP180;2808;51.240;6.794;2023-04-24T08:39:13;99889.00;;;9.30
5571;BMP180;2808;51.240;6.794;2023-04-24T08:41:53;99895.00;;;9.40
5571;BMP180;2808;51.240;6.794;2023-04-24T08:44:20;99900.00;;;9.50
5571;BMP180;2808;51.240;6.794;2023-04-24T08:46:48;99901.00;;;9.50
5571;BMP180;2808;51.240;6.794;2023-04-24T08:49:19;99908.00;;;9.60
5571;BMP180;2808;51.240;6.794;2023-04-24T08:51:48;99914.00;;;9.70
5571;BMP180;2808;51.240;6.794;2023-04-24T08:54:18;99922.00;;;9.60
5571;BMP180;2808;51.240;6.794;2023-04-24T08:57:00;99924.00;;;9.60
5571;BMP180;2808;51.240;6.794;2023-04-24T08:59:36;99927.00;;;9.60
5571;BMP180;2808;51.240;6.794;2023-04-24T09:02:04;99928.00;;;9.60
5571;BMP180;2808;51.240;6.794;2023-04-24T09:04:33;99938.00;;;9.60
5571;BMP180;2808;51.240;6.794;2023-04-24T09:07:02;99959.00;;;9.50
5571;BMP180;2808;51.240;6.794;2023-04-24T09:09:33;99961.00;;;9.50
5571;BMP180;2808;51.240;6.794;2023-04-24T09:12:01;99973.00;;;9.50
5571;BMP180;2808;51.240;6.794;2023-04-24T09:14:30;99971.00;;;9.40
5571;BMP180;2808;51.240;6.794;2023-04-24T09:16:58;99987.00;;;9.30
5571;BMP180;2808;51.240;6.794;2023-04-24T09:19:25;99994.00;;;9.40
5571;BMP180;2808;51.240;6.794;2023-04-24T09:21:53;99996.00;;;9.30
5571;BMP180;2808;51.240;6.794;2023-04-24T09:24:22;100005.00;;;9.40
5571;BMP180;2808;51.240;6.794;2023-04-24T09:26:58;100009.00;;;9.40
5571;BMP180;2808;51.240;6.794;2023-04-24T09:29:27;100020.00;;;9.40
5571;BMP180;2808;51.240;6.794;2023-04-24T09:31:58;100018.00;;;9.40
5571;BMP180;2808;51.240;6.794;2023-04-24T09:34:26;100030.00;;;9.30
5571;BMP180;2808;51.240;6.794;2023-04-24T09:36:55;100045.00;;;9.20
5571;BMP180;2808;51.240;6.794;2023-04-24T09:39:22;100046.00;;;9.30
5571;BMP180;2808;51.240;6.794;2023-04-24T09:41:53;100055.00;;;9.30
5571;BMP180;2808;51.240;6.794;2023-04-24T09:44:24;100057.00;;;9.40
5571;BMP180;2808;51.240;6.794;2023-04-24T09:46:53;100066.00;;;9.40
5571;BMP180;2808;51.240;6.794;2023-04-24T09:49:23;100078.00;;;9.40
5571;BMP180;2808;51.240;6.794;2023-04-24T09:51:52;100059.00;;;9.50
5571;BMP180;2808;51.240;6.794;2023-04-24T09:54:21;100080.00;;;9.60
5571;BMP180;2808;51.240;6.794;2023-04-24T09:57:05;100082.00;;;9.70
5571;BMP180;2808;51.240;6.794;2023-04-24T09:59:56;100092.00;;;9.90
5571;BMP180;2808;51.240;6.794;2023-04-24T10:02:32;100099.00;;;10.00
5571;BMP180;2808;51.240;6.794;2023-04-24T10:05:02;100107.00;;;10.00
5571;BMP180;2808;51.240;6.794;2023-04-24T10:07:32;100112.00;;;10.00
5571;BMP180;2808;51.240;6.794;2023-04-24T10:10:02;100112.00;;;9.90
5571;BMP180;2808;51.240;6.794;2023-04-24T10:12:31;100111.00;;;9.90
5571;BMP180;2808;51.240;6.794;2023-04-24T10:14:59;100119.00;;;10.00
5571;BMP180;2808;51.240;6.794;2023-04-24T10:17:32;100117.00;;;10.00
5571;BMP180;2808;51.240;6.794;2023-04-24T10:20:01;100119.00;;;10.00
5571;BMP180;2808;51.240;6.794;2023-04-24T10:22:29;100140.00;;;10.00
5571;BMP180;2808;51.240;6.794;2023-04-24T10:24:57;100130.00;;;10.00
5571;BMP180;2808;51.240;6.794;2023-04-24T10:27:27;100132.00;;;10.00
5571;BMP180;2808;51.240;6.794;2023-04-24T10:29:57;100134.00;;;10.10
5571;BMP180;2808;51.240;6.794;2023-04-24T10:32:27;100141.00;;;10.00
5571;BMP180;2808;51.240;6.794;2023-04-24T10:34:55;100150.00;;;9.90
5571;BMP180;2808;51.240;6.794;2023-04-24T10:37:23;100148.00;;;10.00
5571;BMP180;2808;51.240;6.794;2023-04-24T10:39:51;100158.00;;;10.00
5571;BMP180;2808;51.240;6.794;2023-04-24T10:42:20;100166.00;;;9.90
5571;BMP180;2808;51.240;6.794;2023-04-24T10:44:49;100166.00;;;9.90
5571;BMP180;2808;51.240;6.794;2023-04-24T10:47:18;100170.00;;;9.90
5571;BMP180;2808;51.240;6.794;2023-04-24T10:49:46;100168.00;;;10.00
5571;BMP180;2808;51.240;6.794;2023-04-24T10:52:17;100174.00;;;10.10
5571;BMP180;2808;51.240;6.794;2023-04-24T10:54:46;100180.00;;;10.20
5571;BMP180;2808;51.240;6.794;2023-04-24T10:57:28;100182.00;;;10.20
5571;BMP180;2808;51.240;6.794;2023-04-24T11:00:18;100187.00;;;10.30
5571;BMP180;2808;51.240;6.794;2023-04-24T11:02:48;100192.00;;;10.40
5571;BMP180;2808;51.240;6.794;2023-04-24T11:05:19;100186.00;;;10.70
5571;BMP180;2808;51.240;6.794;2023-04-24T11:08:12;100197.00;;;11.00
5571;BMP180;2808;51.240;6.794;2023-04-24T11:10:45;100201.00;;;11.20
5571;BMP180;2808;51.240;6.794;2023-04-24T11:13:15;100207.00;;;11.30
5571;BMP180;2808;51.240;6.794;2023-04-24T11:15:43;100195.00;;;11.30
5571;BMP180;2808;51.240;6.794;2023-04-24T11:18:16;100205.00;;;11.00
5571;BMP180;2808;51.240;6.794;2023-04-24T11:20:44;100206.00;;;10.80
5571;BMP180;2808;51.240;6.794;2023-04-24T11:23:13;100212.00;;;10.50
5571;BMP180;2808;51.240;6.794;2023-04-24T11:26:11;100219.00;;;10.40
5571;BMP180;2808;51.240;6.794;2023-04-24T11:28:52;100224.00;;;10.30
5571;BMP180;2808;51.240;6.794;2023-04-24T11:31:37;100225.00;;;10.40
5571;BMP180;2808;51.240;6.794;2023-04-24T11:34:09;100233.00;;;10.70
5571;BMP180;2808;51.240;6.794;2023-04-24T11:36:38;100234.00;;;10.90
5571;BMP180;2808;51.240;6.794;2023-04-24T11:39:07;100244.00;;;11.10
5571;BMP180;2808;51.240;6.794;2023-04-24T11:41:37;100240.00;;;11.30
5571;BMP180;2808;51.240;6.794;2023-04-24T11:44:07;100241.00;;;11.40
5571;BMP180;2808;51.240;6.794;2023-04-24T11:46:35;100244.00;;;11.60
5571;BMP180;2808;51.240;6.794;2023-04-24T11:49:08;100248.00;;;11.90
5571;BMP180;2808;51.240;6.794;2023-04-24T11:51:36;100246.00;;;11.70
5571;BMP180;2808;51.240;6.794;2023-04-24T11:54:08;100244.00;;;11.60
5571;BMP180;2808;51.240;6.794;2023-04-24T11:56:36;100250.00;;;11.50
5571;BMP180;2808;51.240;6.794;2023-04-24T11:59:04;100262.00;;;11.20
5571;BMP180;2808;51.240;6.794;2023-04-24T12:01:43;100254.00;;;11.00
5571;BMP180;2808;51.240;6.794;2023-04-24T12:04:14;100259.00;;;10.80
5571;BMP180;2808;51.240;6.794;2023-04-24T12:06:58;100265.00;;;10.80
5571;BMP180;2808;51.240;6.794;2023-04-24T12:09:26;100275.00;;;10.70
5571;BMP180;2808;51.240;6.794;2023-04-24T12:11:54;100271.00;;;10.70
5571;BMP180;2808;51.240;6.794;2023-04-24T12:14:23;100278.00;;;10.90
5571;BMP180;2808;51.240;6.794;2023-04-24T12:17:05;100271.00;;;11.20
5571;BMP180;2808;51.240;6.794;2023-04-24T12:19:51;100264.00;;;11.50
5571;BMP180;2808;51.240;6.794;2023-04-24T12:22:45;100273.00;;;11.70
5571;BMP180;2808;51.240;6.794;2023-04-24T12:25:16;100283.00;;;11.50
5571;BMP180;2808;51.240;6.794;2023-04-24T12:27:46;100289.00;;;11.70
5571;BMP180;2808;51.240;6.794;2023-04-24T12:30:18;100274.00;;;11.80
5571;BMP180;2808;51.240;6.794;2023-04-24T12:32:47;100287.00;;;12.00
5571;BMP180;2808;51.240;6.794;2023-04-24T12:35:20;100288.00;;;12.10
5571;BMP180;2808;51.240;6.794;2023-04-24T12:37:51;100292.00;;;12.20
5571;BMP180;2808;51.240;6.794;2023-04-24T12:40:24;100296.00;;;12.30
5571;BMP180;2808;51.240;6.794;2023-04-24T12:42:54;100285.00;;;12.40
5571;BMP180;2808;51.240;6.794;2023-04-24T12:45:25;100295.00;;;12.50
5571;BMP180;2808;51.240;6.794;2023-04-24T12:47:54;100301.00;;;12.60
5571;BMP180;2808;51.240;6.794;2023-04-24T12:50:26;100297.00;;;12.60
5571;BMP180;2808;51.240;6.794;2023-04-24T12:52:56;100299.00;;;12.70
5571;BMP180;2808;51.240;6.794;2023-04-24T12:55:31;100299.00;;;12.80
5571;BMP180;2808;51.240;6.794;2023-04-24T12:57:59;100305.00;;;12.90
5571;BMP180;2808;51.240;6.794;2023-04-24T13:00:33;100295.00;;;12.70
5571;BMP180;2808;51.240;6.794;2023-04-24T13:03:01;100312.00;;;12.80
5571;BMP180;2808;51.240;6.794;2023-04-24T13:05:33;100304.00;;;12.70
5571;BMP180;2808;51.240;6.794;2023-04-24T13:08:05;100283.00;;;12.70
5571;BMP180;2808;51.240;6.794;2023-04-24T13:10:32;100304.00;;;12.60
5571;BMP180;2808;51.240;6.794;2023-04-24T13:13:02;100310.00;;;12.70
5571;BMP180;2808;51.240;6.794;2023-04-24T13:15:30;100305.00;;;12.70
5571;BMP180;2808;51.240;6.794;2023-04-24T13:17:57;100310.00;;;12.80
5571;BMP180;2808;51.240;6.794;2023-04-24T13:20:25;100321.00;;;12.90
5571;BMP180;2808;51.240;6.794;2023-04-24T13:22:57;100315.00;;;13.00
5571;BMP180;2808;51.240;6.794;2023-04-24T13:25:26;100317.00;;;13.00
5571;BMP180;2808;51.240;6.794;2023-04-24T13:27:56;100325.00;;;13.00
5571;BMP180;2808;51.240;6.794;2023-04-24T13:30:23;100320.00;;;12.90
5571;BMP180;2808;51.240;6.794;2023-04-24T13:32:51;100333.00;;;12.90
5571;BMP180;2808;51.240;6.794;2023-04-24T13:35:21;100324.00;;;13.00
5571;BMP180;2808;51.240;6.794;2023-04-24T13:37:52;100323.00;;;13.00
5571;BMP180;2808;51.240;6.794;2023-04-24T13:40:23;100335.00;;;13.00
5571;BMP180;2808;51.240;6.794;2023-04-24T13:42:51;100322.00;;;12.90
5571;BMP180;2808;51.240;6.794;2023-04-24T13:45:18;100318.00;;;12.70
5571;BMP180;2808;51.240;6.794;2023-04-24T13:47:46;100325.00;;;12.70
5571;BMP180;2808;51.240;6.794;2023-04-24T13:50:14;100321.00;;;12.70
5571;BMP180;2808;51.240;6.794;2023-04-24T13:52:41;100335.00;;;12.80
5571;BMP180;2808;51.240;6.794;2023-04-24T13:55:09;100335.00;;;12.80
5571;BMP180;2808;51.240;6.794;2023-04-24T13:57:41;100325.00;;;12.70
5571;BMP180;2808;51.240;6.794;2023-04-24T14:00:09;100342.00;;;12.80
5571;BMP180;2808;51.240;6.794;2023-04-24T14:02:37;100324.00;;;12.70
5571;BMP180;2808;51.240;6.794;2023-04-24T14:05:05;100324.00;;;12.60
5571;BMP180;2808;51.240;6.794;2023-04-24T14:07:33;100340.00;;;12.50
5571;BMP180;2808;51.240;6.794;2023-04-24T14:10:00;100332.00;;;12.50
5571;BMP180;2808;51.240;6.794;2023-04-24T14:12:28;100344.00;;;12.60
5571;BMP180;2808;51.240;6.794;2023-04-24T14:14:57;100345.00;;;12.60
5571;BMP180;2808;51.240;6.794;2023-04-24T14:17:24;100342.00;;;12.60
5571;BMP180;2808;51.240;6.794;2023-04-24T14:19:52;100335.00;;;12.50
5571;BMP180;2808;51.240;6.794;2023-04-24T14:22:22;100336.00;;;12.60
5571;BMP180;2808;51.240;6.794;2023-04-24T14:24:50;100340.00;;;12.80
5571;BMP180;2808;51.240;6.794;2023-04-24T14:27:17;100338.00;;;12.80
5571;BMP180;2808;51.240;6.794;2023-04-24T14:29:48;100340.00;;;12.80
5571;BMP180;2808;51.240;6.794;2023-04-24T14:32:19;100326.00;;;12.80
5571;BMP180;2808;51.240;6.794;2023-04-24T14:34:47;100341.00;;;12.90
5571;BMP180;2808;51.240;6.794;2023-04-24T14:37:14;100338.00;;;12.90
5571;BMP180;2808;51.240;6.794;2023-04-24T14:39:54;100333.00;;;13.00
5571;BMP180;2808;51.240;6.794;2023-04-24T14:42:23;100347.00;;;12.90
5571;BMP180;2808;51.240;6.794;2023-04-24T14:44:52;100347.00;;;12.90
5571;BMP180;2808;51.240;6.794;2023-04-24T14:47:26;100339.00;;;13.00
5571;BMP180;2808;51.240;6.794;2023-04-24T14:49:55;100337.00;;;13.10
5571;BMP180;2808;51.240;6.794;2023-04-24T14:52:23;100339.00;;;13.20